sensor_id;sensor_type;location;lat;lon;timestamp;temperature;humidity
44695;DHT22;32845;59.422;17.930;2023-04-03T00:03:01;-2.30;99.90
44695;DHT22;32845;59.422;17.930;2023-04-03T00:07:32;-2.30;99.90
44695;DHT22;32845;59.422;17.930;2023-04-03T00:12:02;-2.30;99.90
44695;DHT22;32845;59.422;17.930;2023-04-03T00:16:33;-2.40;99.90
44695;DHT22;32845;59.422;17.930;2023-04-03T00:21:05;-2.40;99.90
44695;DHT22;32845;59.422;17.930;2023-04-03T00:25:36;-2.40;99.90
44695;DHT22;32845;59.422;17.930;2023-04-03T00:30:08;-2.40;99.90
44695;DHT22;32845;59.422;17.930;2023-04-03T00:34:41;-2.40;99.90
44695;DHT22;32845;59.422;17.930;2023-04-03T00:39:11;-2.50;99.90
44695;DHT22;32845;59.422;17.930;2023-04-03T00:43:42;-2.50;99.90
44695;DHT22;32845;59.422;17.930;2023-04-03T00:54:06;-2.50;99.90
44695;DHT22;32845;59.422;17.930;2023-04-03T00:58:20;-2.50;99.90
44695;DHT22;32845;59.422;17.930;2023-04-03T01:02:53;-2.50;99.90
44695;DHT22;32845;59.422;17.930;2023-04-03T01:07:27;-2.60;99.90
44695;DHT22;32845;59.422;17.930;2023-04-03T01:12:19;-2.60;99.90
44695;DHT22;32845;59.422;17.930;2023-04-03T01:16:54;-2.60;99.90
44695;DHT22;32845;59.422;17.930;2023-04-03T01:21:51;-2.60;99.90
44695;DHT22;32845;59.422;17.930;2023-04-03T01:26:25;-2.70;99.90
44695;DHT22;32845;59.422;17.930;2023-04-03T01:35:47;-2.70;99.90
44695;DHT22;32845;59.422;17.930;2023-04-03T01:40:18;-2.80;99.90
44695;DHT22;32845;59.422;17.930;2023-04-03T01:44:49;-2.80;99.90
44695;DHT22;32845;59.422;17.930;2023-04-03T01:49:20;-2.80;99.90
44695;DHT22;32845;59.422;17.930;2023-04-03T01:53:50;-2.80;99.90
44695;DHT22;32845;59.422;17.930;2023-04-03T01:58:21;-2.80;99.90
44695;DHT22;32845;59.422;17.930;2023-04-03T02:02:52;-2.90;99.90
44695;DHT22;32845;59.422;17.930;2023-04-03T02:07:23;-2.90;99.90
44695;DHT22;32845;59.422;17.930;2023-04-03T02:11:54;-2.90;99.90
44695;DHT22;32845;59.422;17.930;2023-04-03T02:16:25;-2.90;99.90
44695;DHT22;32845;59.422;17.930;2023-04-03T02:20:56;-3.00;99.90
44695;DHT22;32845;59.422;17.930;2023-04-03T02:25:27;-3.00;99.90
44695;DHT22;32845;59.422;17.930;2023-04-03T02:29:58;-3.00;99.90
44695;DHT22;32845;59.422;17.930;2023-04-03T02:34:28;-3.00;99.90
44695;DHT22;32845;59.422;17.930;2023-04-03T02:38:59;-3.10;99.90
44695;DHT22;32845;59.422;17.930;2023-04-03T02:43:30;-3.10;99.90
44695;DHT22;32845;59.422;17.930;2023-04-03T02:48:01;-3.10;99.90
44695;DHT22;32845;59.422;17.930;2023-04-03T02:52:31;-3.10;99.90
44695;DHT22;32845;59.422;17.930;2023-04-03T02:57:02;-3.10;99.90
44695;DHT22;32845;59.422;17.930;2023-04-03T03:01:33;-3.10;99.90
44695;DHT22;32845;59.422;17.930;2023-04-03T03:06:06;-3.20;99.90
44695;DHT22;32845;59.422;17.930;2023-04-03T03:10:37;-3.20;99.90
44695;DHT22;32845;59.422;17.930;2023-04-03T03:15:08;-3.20;99.90
44695;DHT22;32845;59.422;17.930;2023-04-03T03:19:39;-3.20;99.90
44695;DHT22;32845;59.422;17.930;2023-04-03T03:24:09;-3.30;99.90
44695;DHT22;32845;59.422;17.930;2023-04-03T03:28:40;-3.30;99.90
44695;DHT22;32845;59.422;17.930;2023-04-03T03:33:11;-3.30;99.90
44695;DHT22;32845;59.422;17.930;2023-04-03T03:37:41;-3.30;99.90
44695;DHT22;32845;59.422;17.930;2023-04-03T03:42:12;-3.30;99.90
44695;DHT22;32845;59.422;17.930;2023-04-03T03:46:43;-3.30;99.90
44695;DHT22;32845;59.422;17.930;2023-04-03T03:51:14;-3.30;99.90
44695;DHT22;32845;59.422;17.930;2023-04-03T03:55:44;-3.40;99.90
44695;DHT22;32845;59.422;17.930;2023-04-03T04:00:15;-3.40;99.90
44695;DHT22;32845;59.422;17.930;2023-04-03T04:04:46;-3.40;99.90
44695;DHT22;32845;59.422;17.930;2023-04-03T04:09:17;-3.40;99.90
44695;DHT22;32845;59.422;17.930;2023-04-03T04:13:48;-3.40;99.90
44695;DHT22;32845;59.422;17.930;2023-04-03T04:18:19;-3.50;99.90
44695;DHT22;32845;59.422;17.930;2023-04-03T04:22:51;-3.50;99.90
44695;DHT22;32845;59.422;17.930;2023-04-03T04:27:22;-3.50;99.90
44695;DHT22;32845;59.422;17.930;2023-04-03T04:31:53;-3.50;99.90
44695;DHT22;32845;59.422;17.930;2023-04-03T04:36:23;-3.50;99.90
44695;DHT22;32845;59.422;17.930;2023-04-03T04:40:54;-3.50;99.90
44695;DHT22;32845;59.422;17.930;2023-04-03T04:45:25;-3.40;99.90
44695;DHT22;32845;59.422;17.930;2023-04-03T04:49:55;-3.40;99.90
44695;DHT22;32845;59.422;17.930;2023-04-03T04:54:26;-3.40;99.90
44695;DHT22;32845;59.422;17.930;2023-04-03T04:58:57;-3.40;99.90
44695;DHT22;32845;59.422;17.930;2023-04-03T05:03:28;-3.30;99.90
44695;DHT22;32845;59.422;17.930;2023-04-03T05:07:58;-3.30;99.90
44695;DHT22;32845;59.422;17.930;2023-04-03T05:12:29;-3.20;99.90
44695;DHT22;32845;59.422;17.930;2023-04-03T05:17:00;-3.10;99.90
44695;DHT22;32845;59.422;17.930;2023-04-03T05:21:30;-3.10;99.90
44695;DHT22;32845;59.422;17.930;2023-04-03T05:26:02;-3.00;99.90
44695;DHT22;32845;59.422;17.930;2023-04-03T05:30:33;-2.90;99.90
44695;DHT22;32845;59.422;17.930;2023-04-03T05:35:05;-2.80;99.90
44695;DHT22;32845;59.422;17.930;2023-04-03T05:39:36;-2.70;99.90
44695;DHT22;32845;59.422;17.930;2023-04-03T05:44:08;-2.50;99.90
44695;DHT22;32845;59.422;17.930;2023-04-03T05:48:39;-2.50;99.90
44695;DHT22;32845;59.422;17.930;2023-04-03T05:53:17;-2.40;99.90
44695;DHT22;32845;59.422;17.930;2023-04-03T05:57:49;-2.30;99.90
44695;DHT22;32845;59.422;17.930;2023-04-03T06:02:21;-2.20;99.90
44695;DHT22;32845;59.422;17.930;2023-04-03T06:06:54;-2.10;99.90
44695;DHT22;32845;59.422;17.930;2023-04-03T06:11:26;-2.00;99.90
44695;DHT22;32845;59.422;17.930;2023-04-03T06:15:57;-1.80;99.90
44695;DHT22;32845;59.422;17.930;2023-04-03T06:20:27;-1.80;99.90
44695;DHT22;32845;59.422;17.930;2023-04-03T06:24:58;-1.60;99.90
44695;DHT22;32845;59.422;17.930;2023-04-03T06:29:29;-1.50;99.90
44695;DHT22;32845;59.422;17.930;2023-04-03T06:34:00;-1.40;99.90
44695;DHT22;32845;59.422;17.930;2023-04-03T06:38:31;-1.30;99.90
44695;DHT22;32845;59.422;17.930;2023-04-03T06:43:02;-1.20;99.90
44695;DHT22;32845;59.422;17.930;2023-04-03T06:47:33;-1.00;99.90
44695;DHT22;32845;59.422;17.930;2023-04-03T06:52:03;-0.90;99.90
44695;DHT22;32845;59.422;17.930;2023-04-03T06:56:35;-0.80;99.90
44695;DHT22;32845;59.422;17.930;2023-04-03T07:01:07;-0.70;99.90
44695;DHT22;32845;59.422;17.930;2023-04-03T07:05:38;-0.60;99.90
44695;DHT22;32845;59.422;17.930;2023-04-03T07:10:09;-0.50;99.90
44695;DHT22;32845;59.422;17.930;2023-04-03T07:14:41;-0.40;99.90
44695;DHT22;32845;59.422;17.930;2023-04-03T07:19:12;-0.30;99.90
44695;DHT22;32845;59.422;17.930;2023-04-03T07:23:42;-0.20;99.90
44695;DHT22;32845;59.422;17.930;2023-04-03T07:28:14;-0.10;99.90
44695;DHT22;32845;59.422;17.930;2023-04-03T07:32:45;-0.10;99.90
44695;DHT22;32845;59.422;17.930;2023-04-03T07:37:16;0.00;99.90
44695;DHT22;32845;59.422;17.930;2023-04-03T07:41:48;0.10;99.90
44695;DHT22;32845;59.422;17.930;2023-04-03T07:46:18;0.10;99.90
44695;DHT22;32845;59.422;17.930;2023-04-03T07:50:51;0.20;99.90
44695;DHT22;32845;59.422;17.930;2023-04-03T07:55:22;0.30;99.90
44695;DHT22;32845;59.422;17.930;2023-04-03T07:59:53;0.30;99.90
44695;DHT22;32845;59.422;17.930;2023-04-03T08:04:24;0.40;99.90
44695;DHT22;32845;59.422;17.930;2023-04-03T08:08:56;0.50;99.90
44695;DHT22;32845;59.422;17.930;2023-04-03T08:13:27;0.60;99.90
44695;DHT22;32845;59.422;17.930;2023-04-03T08:17:59;0.70;99.90
44695;DHT22;32845;59.422;17.930;2023-04-03T08:22:31;0.70;99.90
44695;DHT22;32845;59.422;17.930;2023-04-03T08:27:01;0.90;99.90
44695;DHT22;32845;59.422;17.930;2023-04-03T08:31:32;1.00;99.90
44695;DHT22;32845;59.422;17.930;2023-04-03T08:36:05;1.10;99.90
44695;DHT22;32845;59.422;17.930;2023-04-03T08:40:37;1.20;99.90
44695;DHT22;32845;59.422;17.930;2023-04-03T08:45:15;1.40;99.90
44695;DHT22;32845;59.422;17.930;2023-04-03T08:49:56;1.40;99.90
44695;DHT22;32845;59.422;17.930;2023-04-03T08:54:33;1.70;99.90
44695;DHT22;32845;59.422;17.930;2023-04-03T08:59:10;1.80;99.90
44695;DHT22;32845;59.422;17.930;2023-04-03T09:03:42;1.90;99.90
44695;DHT22;32845;59.422;17.930;2023-04-03T09:08:28;2.00;99.90
44695;DHT22;32845;59.422;17.930;2023-04-03T09:18:09;2.20;99.90
44695;DHT22;32845;59.422;17.930;2023-04-03T09:22:43;2.30;99.90
44695;DHT22;32845;59.422;17.930;2023-04-03T09:27:14;2.50;99.90
44695;DHT22;32845;59.422;17.930;2023-04-03T09:31:47;2.60;99.90
44695;DHT22;32845;59.422;17.930;2023-04-03T09:36:44;2.90;99.90
44695;DHT22;32845;59.422;17.930;2023-04-03T09:41:17;3.10;99.90
44695;DHT22;32845;59.422;17.930;2023-04-03T09:45:50;3.30;99.90
44695;DHT22;32845;59.422;17.930;2023-04-03T09:50:22;3.30;99.90
44695;DHT22;32845;59.422;17.930;2023-04-03T09:54:53;3.40;99.90
44695;DHT22;32845;59.422;17.930;2023-04-03T09:59:24;3.50;99.90
44695;DHT22;32845;59.422;17.930;2023-04-03T10:08:43;3.90;99.90
44695;DHT22;32845;59.422;17.930;2023-04-03T10:13:28;4.10;99.90
44695;DHT22;32845;59.422;17.930;2023-04-03T10:18:06;4.30;99.90
44695;DHT22;32845;59.422;17.930;2023-04-03T10:22:42;4.60;99.90
44695;DHT22;32845;59.422;17.930;2023-04-03T10:32:42;5.10;99.30
44695;DHT22;32845;59.422;17.930;2023-04-03T10:37:30;5.40;96.30
44695;DHT22;32845;59.422;17.930;2023-04-03T10:42:13;5.70;96.00
44695;DHT22;32845;59.422;17.930;2023-04-03T10:46:49;6.00;98.00
44695;DHT22;32845;59.422;17.930;2023-04-03T10:56:12;6.60;94.40
44695;DHT22;32845;59.422;17.930;2023-04-03T11:00:50;6.90;95.70
44695;DHT22;32845;59.422;17.930;2023-04-03T11:05:45;7.40;93.30
44695;DHT22;32845;59.422;17.930;2023-04-03T11:10:35;8.00;93.20
44695;DHT22;32845;59.422;17.930;2023-04-03T11:15:16;9.30;93.00
44695;DHT22;32845;59.422;17.930;2023-04-03T11:24:32;15.20;73.90
44695;DHT22;32845;59.422;17.930;2023-04-03T11:29:11;17.30;74.40
44695;DHT22;32845;59.422;17.930;2023-04-03T11:38:31;19.30;57.20
44695;DHT22;32845;59.422;17.930;2023-04-03T11:57:42;20.70;45.70
44695;DHT22;32845;59.422;17.930;2023-04-03T12:02:36;20.50;46.20
44695;DHT22;32845;59.422;17.930;2023-04-03T12:07:18;20.50;48.30
44695;DHT22;32845;59.422;17.930;2023-04-03T12:11:51;20.20;46.80
44695;DHT22;32845;59.422;17.930;2023-04-03T12:20:56;18.60;49.10
44695;DHT22;32845;59.422;17.930;2023-04-03T12:25:48;17.40;50.60
44695;DHT22;32845;59.422;17.930;2023-04-03T12:30:26;16.70;54.40
44695;DHT22;32845;59.422;17.930;2023-04-03T12:35:12;16.30;57.00
44695;DHT22;32845;59.422;17.930;2023-04-03T12:44:38;14.80;56.50
44695;DHT22;32845;59.422;17.930;2023-04-03T12:49:41;14.50;58.40
44695;DHT22;32845;59.422;17.930;2023-04-03T12:54:35;13.90;55.40
44695;DHT22;32845;59.422;17.930;2023-04-03T12:59:20;13.20;57.70
44695;DHT22;32845;59.422;17.930;2023-04-03T13:03:56;12.90;60.00
44695;DHT22;32845;59.422;17.930;2023-04-03T13:08:27;12.80;60.50
44695;DHT22;32845;59.422;17.930;2023-04-03T13:13:09;12.90;58.50
44695;DHT22;32845;59.422;17.930;2023-04-03T13:17:42;12.90;57.80
44695;DHT22;32845;59.422;17.930;2023-04-03T13:22:35;12.90;57.10
44695;DHT22;32845;59.422;17.930;2023-04-03T13:27:11;13.00;57.50
44695;DHT22;32845;59.422;17.930;2023-04-03T13:31:43;12.40;55.50
44695;DHT22;32845;59.422;17.930;2023-04-03T13:36:19;12.20;59.10
44695;DHT22;32845;59.422;17.930;2023-04-03T13:40:53;11.90;58.50
44695;DHT22;32845;59.422;17.930;2023-04-03T13:45:31;11.90;62.20
44695;DHT22;32845;59.422;17.930;2023-04-03T13:50:23;11.70;58.50
44695;DHT22;32845;59.422;17.930;2023-04-03T13:55:19;11.50;58.40
44695;DHT22;32845;59.422;17.930;2023-04-03T13:59:50;11.40;61.60
44695;DHT22;32845;59.422;17.930;2023-04-03T14:04:24;11.50;61.00
44695;DHT22;32845;59.422;17.930;2023-04-03T14:08:56;11.30;62.40
44695;DHT22;32845;59.422;17.930;2023-04-03T14:13:29;10.90;59.30
44695;DHT22;32845;59.422;17.930;2023-04-03T14:18:00;10.50;62.80
44695;DHT22;32845;59.422;17.930;2023-04-03T14:22:33;10.10;64.40
44695;DHT22;32845;59.422;17.930;2023-04-03T14:27:16;9.60;63.60
44695;DHT22;32845;59.422;17.930;2023-04-03T14:31:48;9.30;65.40
44695;DHT22;32845;59.422;17.930;2023-04-03T14:36:22;9.10;65.40
44695;DHT22;32845;59.422;17.930;2023-04-03T14:40:54;8.80;65.40
44695;DHT22;32845;59.422;17.930;2023-04-03T14:45:25;8.70;66.70
44695;DHT22;32845;59.422;17.930;2023-04-03T14:49:57;8.60;68.50
44695;DHT22;32845;59.422;17.930;2023-04-03T14:54:28;8.50;68.00
44695;DHT22;32845;59.422;17.930;2023-04-03T14:59:00;8.40;68.00
44695;DHT22;32845;59.422;17.930;2023-04-03T15:03:31;8.20;67.20
44695;DHT22;32845;59.422;17.930;2023-04-03T15:08:02;8.10;68.60
44695;DHT22;32845;59.422;17.930;2023-04-03T15:12:33;7.90;68.20
44695;DHT22;32845;59.422;17.930;2023-04-03T15:17:05;7.70;68.70
44695;DHT22;32845;59.422;17.930;2023-04-03T15:21:36;7.60;69.50
44695;DHT22;32845;59.422;17.930;2023-04-03T15:26:07;7.50;69.00
44695;DHT22;32845;59.422;17.930;2023-04-03T15:30:39;7.40;67.70
44695;DHT22;32845;59.422;17.930;2023-04-03T15:35:11;7.30;68.90
44695;DHT22;32845;59.422;17.930;2023-04-03T15:39:41;7.30;69.00
44695;DHT22;32845;59.422;17.930;2023-04-03T15:44:12;7.30;69.10
44695;DHT22;32845;59.422;17.930;2023-04-03T15:48:43;7.40;69.10
44695;DHT22;32845;59.422;17.930;2023-04-03T15:53:15;7.30;67.20
44695;DHT22;32845;59.422;17.930;2023-04-03T15:57:45;7.20;68.80
44695;DHT22;32845;59.422;17.930;2023-04-03T16:02:16;7.20;68.40
44695;DHT22;32845;59.422;17.930;2023-04-03T16:06:48;7.00;68.60
44695;DHT22;32845;59.422;17.930;2023-04-03T16:11:18;6.90;68.00
44695;DHT22;32845;59.422;17.930;2023-04-03T16:15:49;6.70;69.70
44695;DHT22;32845;59.422;17.930;2023-04-03T16:20:20;6.50;69.00
44695;DHT22;32845;59.422;17.930;2023-04-03T16:24:52;6.30;70.40
44695;DHT22;32845;59.422;17.930;2023-04-03T16:29:22;6.10;71.10
44695;DHT22;32845;59.422;17.930;2023-04-03T16:33:54;5.90;72.50
44695;DHT22;32845;59.422;17.930;2023-04-03T16:38:25;5.70;74.90
44695;DHT22;32845;59.422;17.930;2023-04-03T16:42:56;5.50;75.80
44695;DHT22;32845;59.422;17.930;2023-04-03T16:47:27;5.30;76.90
44695;DHT22;32845;59.422;17.930;2023-04-03T16:52:02;5.00;78.50
44695;DHT22;32845;59.422;17.930;2023-04-03T16:56:33;4.90;78.60
44695;DHT22;32845;59.422;17.930;2023-04-03T17:01:17;4.70;78.50
44695;DHT22;32845;59.422;17.930;2023-04-03T17:05:49;4.50;78.30
44695;DHT22;32845;59.422;17.930;2023-04-03T17:10:20;4.30;79.90
44695;DHT22;32845;59.422;17.930;2023-04-03T17:14:51;4.20;79.30
44695;DHT22;32845;59.422;17.930;2023-04-03T17:19:21;4.00;79.60
44695;DHT22;32845;59.422;17.930;2023-04-03T17:23:59;3.90;80.70
44695;DHT22;32845;59.422;17.930;2023-04-03T17:28:31;3.70;80.60
44695;DHT22;32845;59.422;17.930;2023-04-03T17:33:01;3.60;81.10
44695;DHT22;32845;59.422;17.930;2023-04-03T17:37:32;3.50;81.30
44695;DHT22;32845;59.422;17.930;2023-04-03T17:42:03;3.30;83.00
44695;DHT22;32845;59.422;17.930;2023-04-03T17:46:33;3.10;84.10
44695;DHT22;32845;59.422;17.930;2023-04-03T17:51:13;2.90;85.20
44695;DHT22;32845;59.422;17.930;2023-04-03T17:55:43;2.60;86.40
44695;DHT22;32845;59.422;17.930;2023-04-03T18:00:15;2.30;87.50
44695;DHT22;32845;59.422;17.930;2023-04-03T18:04:46;2.10;88.40
44695;DHT22;32845;59.422;17.930;2023-04-03T18:09:31;1.80;89.50
44695;DHT22;32845;59.422;17.930;2023-04-03T18:14:02;1.70;90.00
44695;DHT22;32845;59.422;17.930;2023-04-03T18:18:34;1.50;90.50
44695;DHT22;32845;59.422;17.930;2023-04-03T18:23:05;1.30;91.20
44695;DHT22;32845;59.422;17.930;2023-04-03T18:27:36;1.10;91.60
44695;DHT22;32845;59.422;17.930;2023-04-03T18:32:09;1.00;91.30
44695;DHT22;32845;59.422;17.930;2023-04-03T18:36:41;0.80;91.90
44695;DHT22;32845;59.422;17.930;2023-04-03T18:41:12;0.70;92.10
44695;DHT22;32845;59.422;17.930;2023-04-03T18:45:45;0.60;92.10
44695;DHT22;32845;59.422;17.930;2023-04-03T18:50:16;0.50;92.90
44695;DHT22;32845;59.422;17.930;2023-04-03T18:54:47;0.30;93.30
44695;DHT22;32845;59.422;17.930;2023-04-03T18:59:17;0.20;93.40
44695;DHT22;32845;59.422;17.930;2023-04-03T19:03:48;0.10;93.60
44695;DHT22;32845;59.422;17.930;2023-04-03T19:08:19;0.00;94.10
44695;DHT22;32845;59.422;17.930;2023-04-03T19:12:51;0.00;94.50
44695;DHT22;32845;59.422;17.930;2023-04-03T19:17:21;-0.10;94.60
44695;DHT22;32845;59.422;17.930;2023-04-03T19:21:52;-0.20;94.90
44695;DHT22;32845;59.422;17.930;2023-04-03T19:26:23;-0.30;95.10
44695;DHT22;32845;59.422;17.930;2023-04-03T19:30:54;-0.30;94.40
44695;DHT22;32845;59.422;17.930;2023-04-03T19:35:26;-0.30;93.80
44695;DHT22;32845;59.422;17.930;2023-04-03T19:39:57;-0.40;93.50
44695;DHT22;32845;59.422;17.930;2023-04-03T19:44:29;-0.40;93.10
44695;DHT22;32845;59.422;17.930;2023-04-03T19:49:02;-0.50;94.90
44695;DHT22;32845;59.422;17.930;2023-04-03T19:53:33;-0.60;94.60
44695;DHT22;32845;59.422;17.930;2023-04-03T19:58:03;-0.70;94.70
44695;DHT22;32845;59.422;17.930;2023-04-03T20:02:35;-0.80;94.50
44695;DHT22;32845;59.422;17.930;2023-04-03T20:07:05;-0.80;94.90
44695;DHT22;32845;59.422;17.930;2023-04-03T20:11:37;-0.80;95.20
44695;DHT22;32845;59.422;17.930;2023-04-03T20:16:09;-0.80;94.90
44695;DHT22;32845;59.422;17.930;2023-04-03T20:20:40;-0.80;94.50
44695;DHT22;32845;59.422;17.930;2023-04-03T20:25:11;-0.90;94.90
44695;DHT22;32845;59.422;17.930;2023-04-03T20:29:43;-0.90;95.60
44695;DHT22;32845;59.422;17.930;2023-04-03T20:34:13;-1.00;94.70
44695;DHT22;32845;59.422;17.930;2023-04-03T20:38:46;-1.00;94.50
44695;DHT22;32845;59.422;17.930;2023-04-03T20:43:17;-1.00;94.40
44695;DHT22;32845;59.422;17.930;2023-04-03T20:47:48;-1.00;94.20
44695;DHT22;32845;59.422;17.930;2023-04-03T20:52:21;-1.10;94.40
44695;DHT22;32845;59.422;17.930;2023-04-03T20:56:52;-1.30;94.50
44695;DHT22;32845;59.422;17.930;2023-04-03T21:01:23;-1.30;95.30
44695;DHT22;32845;59.422;17.930;2023-04-03T21:20:30;-1.50;96.70
44695;DHT22;32845;59.422;17.930;2023-04-03T21:25:01;-1.60;97.20
44695;DHT22;32845;59.422;17.930;2023-04-03T21:29:32;-1.70;97.70
44695;DHT22;32845;59.422;17.930;2023-04-03T21:34:02;-1.80;98.40
44695;DHT22;32845;59.422;17.930;2023-04-03T21:38:33;-1.90;99.90
44695;DHT22;32845;59.422;17.930;2023-04-03T21:43:05;-1.90;99.90
44695;DHT22;32845;59.422;17.930;2023-04-03T21:47:35;-2.00;99.90
44695;DHT22;32845;59.422;17.930;2023-04-03T21:52:07;-2.10;99.90
44695;DHT22;32845;59.422;17.930;2023-04-03T21:56:38;-2.20;99.90
44695;DHT22;32845;59.422;17.930;2023-04-03T22:01:09;-2.30;99.90
44695;DHT22;32845;59.422;17.930;2023-04-03T22:05:40;-2.30;99.90
44695;DHT22;32845;59.422;17.930;2023-04-03T22:10:11;-2.40;99.90
44695;DHT22;32845;59.422;17.930;2023-04-03T22:14:42;-2.40;99.90
44695;DHT22;32845;59.422;17.930;2023-04-03T22:19:13;-2.50;99.90
44695;DHT22;32845;59.422;17.930;2023-04-03T22:23:44;-2.60;99.90
44695;DHT22;32845;59.422;17.930;2023-04-03T22:28:14;-2.60;99.90
44695;DHT22;32845;59.422;17.930;2023-04-03T22:32:45;-2.70;99.90
44695;DHT22;32845;59.422;17.930;2023-04-03T22:37:16;-2.80;99.90
44695;DHT22;32845;59.422;17.930;2023-04-03T22:41:47;-2.80;99.90
44695;DHT22;32845;59.422;17.930;2023-04-03T22:46:18;-2.90;99.90
44695;DHT22;32845;59.422;17.930;2023-04-03T22:50:50;-3.00;99.90
44695;DHT22;32845;59.422;17.930;2023-04-03T22:55:21;-3.00;99.90
44695;DHT22;32845;59.422;17.930;2023-04-03T22:59:53;-3.10;99.90
44695;DHT22;32845;59.422;17.930;2023-04-03T23:04:24;-3.20;99.90
44695;DHT22;32845;59.422;17.930;2023-04-03T23:08:55;-3.20;99.90
44695;DHT22;32845;59.422;17.930;2023-04-03T23:13:26;-3.20;99.90
44695;DHT22;32845;59.422;17.930;2023-04-03T23:17:56;-3.20;99.90
44695;DHT22;32845;59.422;17.930;2023-04-03T23:22:27;-3.20;99.90
44695;DHT22;32845;59.422;17.930;2023-04-03T23:26:58;-3.30;99.90
44695;DHT22;32845;59.422;17.930;2023-04-03T23:31:29;-3.50;99.90
44695;DHT22;32845;59.422;17.930;2023-04-03T23:36:04;-3.60;99.90
44695;DHT22;32845;59.422;17.930;2023-04-03T23:40:35;-3.60;99.90
44695;DHT22;32845;59.422;17.930;2023-04-03T23:45:07;-3.70;99.90
44695;DHT22;32845;59.422;17.930;2023-04-03T23:49:38;-3.70;99.90
44695;DHT22;32845;59.422;17.930;2023-04-03T23:54:08;-3.80;99.90
44695;DHT22;32845;59.422;17.930;2023-04-03T23:58:39;-3.90;99.90
